Terminal Aerodrome Forecast
Issued by NWS

Home | Current Version | Previous Version | Text Only | Print | Product List | Glossary On
Versions: 1 2 3 4 5 6 7 8 9 10 11 12
979
FTUS43 KICT 212320
TAFCNU
TAF
KCNU 212320Z 2200/2224 16017G24KT P6SM SKC
     FM220100 16012KT P6SM SKC
     FM221500 18015G21KT P6SM SCT050=

USA.gov is the U.S. government's official web portal to all federal, state and local government web resources and services.